sensor_id;sensor_type;location;lat;lon;timestamp;P1;durP1;ratioP1;P2;durP2;ratioP2
63581;SDS011;49727;51.078;17.066;2023-07-20T00:03:37;4.20;;;1.90;;
63581;SDS011;49727;51.078;17.066;2023-07-20T00:18:37;4.30;;;2.00;;
63581;SDS011;49727;51.078;17.066;2023-07-20T00:33:37;5.45;;;1.98;;
63581;SDS011;49727;51.078;17.066;2023-07-20T00:48:38;3.50;;;1.98;;
63581;SDS011;49727;51.078;17.066;2023-07-20T01:03:39;4.07;;;2.33;;
63581;SDS011;49727;51.078;17.066;2023-07-20T01:18:39;4.95;;;2.47;;
63581;SDS011;49727;51.078;17.066;2023-07-20T01:33:40;6.90;;;2.47;;
63581;SDS011;49727;51.078;17.066;2023-07-20T01:48:42;6.17;;;3.23;;
63581;SDS011;49727;51.078;17.066;2023-07-20T02:03:42;4.80;;;2.60;;
63581;SDS011;49727;51.078;17.066;2023-07-20T02:18:43;5.13;;;3.10;;
63581;SDS011;49727;51.078;17.066;2023-07-20T02:33:43;4.60;;;2.80;;
63581;SDS011;49727;51.078;17.066;2023-07-20T02:48:43;4.07;;;2.90;;
63581;SDS011;49727;51.078;17.066;2023-07-20T03:03:44;6.82;;;2.80;;
63581;SDS011;49727;51.078;17.066;2023-07-20T03:18:47;4.70;;;3.00;;
63581;SDS011;49727;51.078;17.066;2023-07-20T03:33:48;4.32;;;2.20;;
63581;SDS011;49727;51.078;17.066;2023-07-20T03:48:48;6.30;;;2.60;;
63581;SDS011;49727;51.078;17.066;2023-07-20T04:03:48;5.07;;;2.75;;
63581;SDS011;49727;51.078;17.066;2023-07-20T04:18:48;6.78;;;3.00;;
63581;SDS011;49727;51.078;17.066;2023-07-20T04:33:49;5.85;;;3.40;;
63581;SDS011;49727;51.078;17.066;2023-07-20T04:48:50;7.35;;;3.30;;
63581;SDS011;49727;51.078;17.066;2023-07-20T05:03:50;5.60;;;2.92;;
63581;SDS011;49727;51.078;17.066;2023-07-20T05:18:50;8.73;;;3.58;;
63581;SDS011;49727;51.078;17.066;2023-07-20T05:33:51;5.35;;;3.25;;
63581;SDS011;49727;51.078;17.066;2023-07-20T05:48:51;4.70;;;3.30;;
63581;SDS011;49727;51.078;17.066;2023-07-20T06:03:51;10.40;;;4.50;;
63581;SDS011;49727;51.078;17.066;2023-07-20T06:18:52;11.98;;;4.57;;
63581;SDS011;49727;51.078;17.066;2023-07-20T06:33:52;10.13;;;4.32;;
63581;SDS011;49727;51.078;17.066;2023-07-20T06:48:53;7.78;;;4.82;;
63581;SDS011;49727;51.078;17.066;2023-07-20T07:03:53;5.90;;;3.53;;
63581;SDS011;49727;51.078;17.066;2023-07-20T07:18:54;5.93;;;3.43;;
63581;SDS011;49727;51.078;17.066;2023-07-20T07:48:54;7.33;;;3.10;;
63581;SDS011;49727;51.078;17.066;2023-07-20T08:03:55;6.18;;;2.90;;
63581;SDS011;49727;51.078;17.066;2023-07-20T08:18:56;4.45;;;3.00;;
63581;SDS011;49727;51.078;17.066;2023-07-20T08:33:56;3.88;;;2.13;;
63581;SDS011;49727;51.078;17.066;2023-07-20T08:48:56;3.45;;;1.90;;
63581;SDS011;49727;51.078;17.066;2023-07-20T09:03:58;3.50;;;2.17;;
63581;SDS011;49727;51.078;17.066;2023-07-20T09:18:58;2.95;;;1.60;;
63581;SDS011;49727;51.078;17.066;2023-07-20T09:33:59;3.83;;;1.95;;
63581;SDS011;49727;51.078;17.066;2023-07-20T09:48:59;4.95;;;1.55;;
63581;SDS011;49727;51.078;17.066;2023-07-20T10:04:00;2.08;;;1.40;;
63581;SDS011;49727;51.078;17.066;2023-07-20T10:19:07;2.93;;;1.17;;
63581;SDS011;49727;51.078;17.066;2023-07-20T10:34:13;1.10;;;0.70;;
63581;SDS011;49727;51.078;17.066;2023-07-20T10:49:14;1.83;;;1.00;;
63581;SDS011;49727;51.078;17.066;2023-07-20T11:04:15;2.33;;;1.37;;
63581;SDS011;49727;51.078;17.066;2023-07-20T11:19:23;1.03;;;0.90;;
63581;SDS011;49727;51.078;17.066;2023-07-20T11:34:24;2.37;;;1.23;;
63581;SDS011;49727;51.078;17.066;2023-07-20T11:49:24;4.22;;;1.75;;
63581;SDS011;49727;51.078;17.066;2023-07-20T12:04:25;2.30;;;2.10;;
63581;SDS011;49727;51.078;17.066;2023-07-20T12:19:25;3.20;;;2.20;;
63581;SDS011;49727;51.078;17.066;2023-07-20T12:34:26;2.00;;;1.80;;
63581;SDS011;49727;51.078;17.066;2023-07-20T12:49:26;3.28;;;1.60;;
63581;SDS011;49727;51.078;17.066;2023-07-20T13:04:27;3.22;;;1.20;;
63581;SDS011;49727;51.078;17.066;2023-07-20T13:19:27;1.77;;;1.30;;
63581;SDS011;49727;51.078;17.066;2023-07-20T13:34:27;1.25;;;1.10;;
63581;SDS011;49727;51.078;17.066;2023-07-20T13:49:28;1.98;;;1.30;;
63581;SDS011;49727;51.078;17.066;2023-07-20T14:04:28;1.52;;;1.02;;
63581;SDS011;49727;51.078;17.066;2023-07-20T14:19:29;3.55;;;1.10;;
63581;SDS011;49727;51.078;17.066;2023-07-20T14:34:29;1.88;;;1.00;;
63581;SDS011;49727;51.078;17.066;2023-07-20T14:49:29;3.10;;;1.00;;
63581;SDS011;49727;51.078;17.066;2023-07-20T15:04:29;3.33;;;1.20;;
63581;SDS011;49727;51.078;17.066;2023-07-20T15:19:30;1.55;;;1.00;;
63581;SDS011;49727;51.078;17.066;2023-07-20T15:34:30;2.63;;;1.20;;
63581;SDS011;49727;51.078;17.066;2023-07-20T15:49:30;2.75;;;1.00;;
63581;SDS011;49727;51.078;17.066;2023-07-20T16:04:31;2.78;;;1.25;;
63581;SDS011;49727;51.078;17.066;2023-07-20T16:19:31;4.10;;;1.30;;
63581;SDS011;49727;51.078;17.066;2023-07-20T16:34:32;1.98;;;0.90;;
63581;SDS011;49727;51.078;17.066;2023-07-20T16:49:32;2.33;;;1.02;;
63581;SDS011;49727;51.078;17.066;2023-07-20T17:04:32;1.70;;;1.05;;
63581;SDS011;49727;51.078;17.066;2023-07-20T17:19:33;0.95;;;0.82;;
63581;SDS011;49727;51.078;17.066;2023-07-20T17:34:34;0.80;;;0.80;;
63581;SDS011;49727;51.078;17.066;2023-07-20T17:49:35;2.08;;;1.00;;
63581;SDS011;49727;51.078;17.066;2023-07-20T18:04:35;1.63;;;0.90;;
63581;SDS011;49727;51.078;17.066;2023-07-20T18:19:35;2.05;;;1.10;;
63581;SDS011;49727;51.078;17.066;2023-07-20T18:34:37;2.23;;;1.13;;
63581;SDS011;49727;51.078;17.066;2023-07-20T18:49:37;2.33;;;0.90;;
63581;SDS011;49727;51.078;17.066;2023-07-20T19:04:37;2.97;;;0.90;;
63581;SDS011;49727;51.078;17.066;2023-07-20T19:19:38;5.05;;;2.13;;
63581;SDS011;49727;51.078;17.066;2023-07-20T19:34:38;3.63;;;1.70;;
63581;SDS011;49727;51.078;17.066;2023-07-20T19:49:38;2.27;;;1.43;;
63581;SDS011;49727;51.078;17.066;2023-07-20T20:04:39;4.07;;;1.80;;
63581;SDS011;49727;51.078;17.066;2023-07-20T20:19:40;4.33;;;1.47;;
63581;SDS011;49727;51.078;17.066;2023-07-20T20:34:40;2.53;;;1.17;;
63581;SDS011;49727;51.078;17.066;2023-07-20T20:49:42;3.23;;;1.80;;
63581;SDS011;49727;51.078;17.066;2023-07-20T21:04:46;2.10;;;1.27;;
63581;SDS011;49727;51.078;17.066;2023-07-20T21:19:47;3.90;;;1.60;;
63581;SDS011;49727;51.078;17.066;2023-07-20T21:34:49;5.73;;;1.97;;
63581;SDS011;49727;51.078;17.066;2023-07-20T21:49:49;4.07;;;1.80;;
63581;SDS011;49727;51.078;17.066;2023-07-20T22:04:49;4.15;;;2.08;;
63581;SDS011;49727;51.078;17.066;2023-07-20T22:19:50;3.25;;;2.00;;
63581;SDS011;49727;51.078;17.066;2023-07-20T22:34:50;2.25;;;1.70;;
63581;SDS011;49727;51.078;17.066;2023-07-20T22:49:50;3.85;;;1.90;;
63581;SDS011;49727;51.078;17.066;2023-07-20T23:04:51;3.47;;;2.00;;
63581;SDS011;49727;51.078;17.066;2023-07-20T23:19:53;5.60;;;2.27;;
63581;SDS011;49727;51.078;17.066;2023-07-20T23:34:53;3.67;;;2.10;;
63581;SDS011;49727;51.078;17.066;2023-07-20T23:49:54;2.73;;;1.80;;
